Domov               UVHVVR             MKGP            O straneh              
ZDRAVSTVENO VARSTVO RASTLIN
  MREŽA AGROMET. POSTAJ
 ► PROGNOSTIČNA OBVESTILA
AGROMETEOROLOŠKI PODATKI -
ARSO
OBVLADOVANJE TVEGANJ ZARADI
NEUGODNIH VREMENSKIH RAZMER
  ► NARAVNE NESREČE
  ► SUŠA/MOČA
  ► NAMAKANJE
  ► ŽLED (gozdarstvo)
KARTOGRAFSKI PRIKAZI
SPLETNE POVEZAVE
PROJEKTI IN PUBLIKACIJE

AGROMETEOROLOŠKA MREŽA: VREMENSKE POSTAJE IN FENOLOŠKA OPAZOVANJA

Pregled podatkov za lokacijo Potoče, meteorološka postaja 861648

Pregled senzorjev na lokaciji

ID Ime Zadnja
vrednost
Datum
zadnje
spremembe
Tip
senzorja
4070 Temperatura 2 m (°C) -0,98 °C 18.1.2018 20:00 50YA
4071 Relativna vlaga 2 m (% RH) 92,56 % RH 18.1.2018 20:00 50YA
4072 Omočenost lista (U) 0 U 18.1.2018 20:00 A730WET
4073 Padavine (mm) 0 mm 18.1.2018 20:00 Rain-O-Matic

Pregled podatkov zadnjih 24 ur

Zap.
št.
Datum in čas Potoče
Omočenost
lista
Padavine Relativna
vlaga
2
m
Temperatura
2
m
0 18.1.2018 20:00 0 0 92,56 -0,98
1 18.1.2018 19:30 0 0 91,37 -0,61
2 18.1.2018 19:00 0 0 89,56 -0,05
3 18.1.2018 18:30 0 0 86,64 0,72
4 18.1.2018 18:00 0 0 84,54 1,91
5 18.1.2018 17:30 0 0 74,3 3,58
6 18.1.2018 17:00 0 0 64,83 5,57
7 18.1.2018 16:30 0 0 51,53 8,28
8 18.1.2018 16:00 0 0 50,76 8,82
9 18.1.2018 15:30 0 0 49,91 9,64
10 18.1.2018 15:00 0 0 47,99 9,86
11 18.1.2018 14:30 0 0 45,58 9,75
12 18.1.2018 14:00 0 0 43,5 9,74
13 18.1.2018 13:30 0 0 46,2 9,73
14 18.1.2018 13:00 0 0 56,6 9,2
15 18.1.2018 12:30 0 0 58,24 8,44
16 18.1.2018 12:00 0 0 61,91 7,92
17 18.1.2018 11:30 0 0 70,04 5,95
18 18.1.2018 11:00 0 0 74,09 4,15
19 18.1.2018 10:30 0 0,4 79,73 2,26
20 18.1.2018 10:00 0 0 88,2 1,21
21 18.1.2018 09:30 0 0 95,36 -1,32
22 18.1.2018 09:00 0 0 97,41 -1,85
23 18.1.2018 08:30 0 0 97,61 -3,99
24 18.1.2018 08:00 0 0 97,77 -4,35
25 18.1.2018 07:30 1 0 97,74 -4,65
26 18.1.2018 07:00 1 0 97,86 -4,82
27 18.1.2018 06:30 0 0 98,02 -4,76
28 18.1.2018 06:00 0 0 98,24 -4,61
29 18.1.2018 05:30 0 0 98,17 -4,74
30 18.1.2018 05:00 0 0 98,45 -4,18
31 18.1.2018 04:30 0 0 98,62 -4,07
32 18.1.2018 04:00 0 0 98,57 -4,08
33 18.1.2018 03:30 0 0 98,57 -3,96
34 18.1.2018 03:00 0 0 98,71 -3,43
35 18.1.2018 02:30 0 0 98,86 -3,02
36 18.1.2018 02:00 0 0 98,95 -2,66
37 18.1.2018 01:30 0 0 98,82 -2,33
38 18.1.2018 01:00 0 0 99,02 -1,92
39 18.1.2018 00:30 0 0 98,89 -2,28
40 18.1.2018 00:00 0 0 98,67 -2,42
41 17.1.2018 23:30 0 0 98,52 -2,11
42 17.1.2018 23:00 0 0 98,13 -2,05
43 17.1.2018 22:30 0 0 97,92 -1,41
44 17.1.2018 22:00 0 0 97,17 -1,13
45 17.1.2018 21:30 0 0 96,24 -0,25
46 17.1.2018 21:00 0 0 96,49 1,27
© 2011 Ministrstvo za kmetijstvo, gozdarstvo in prehrano. Vse pravice pridržane.